createdAt,value
2019-01-16T00:02:28.582Z,71.63
2019-01-16T00:05:17.127Z,71.72
2019-01-16T00:08:05.504Z,71.81
2019-01-16T00:10:51.763Z,71.75
2019-01-16T00:13:38.894Z,71.51
2019-01-16T00:16:30.127Z,71.54
2019-01-16T00:19:17.939Z,71.89
2019-01-16T00:21:59.440Z,72.19
2019-01-16T00:24:46.770Z,72.35
2019-01-16T00:27:33.764Z,72.54
2019-01-16T00:30:22.624Z,72.81
2019-01-16T00:33:00.512Z,73.10
2019-01-16T00:35:47.256Z,73.58
2019-01-16T00:38:47.068Z,73.65
2019-01-16T00:41:45.302Z,73.73
2019-01-16T00:44:32.523Z,73.84
2019-01-16T00:47:19.785Z,73.67
2019-01-16T00:50:11.205Z,73.66
2019-01-16T00:53:03.630Z,73.44
2019-01-16T00:55:47.104Z,73.15
2019-01-16T00:58:25.979Z,73.20
2019-01-16T01:01:17.371Z,72.90
2019-01-16T01:04:04.523Z,72.50
2019-01-16T01:06:48.385Z,72.40
2019-01-16T01:09:36.410Z,72.21
2019-01-16T01:12:23.761Z,72.00
2019-01-16T01:15:07.735Z,71.95
2019-01-16T01:17:55.272Z,71.84
2019-01-16T01:20:42.726Z,71.55
2019-01-16T01:23:23.369Z,71.36
2019-01-16T01:26:10.551Z,71.39
2019-01-16T01:29:00.764Z,71.27
2019-01-16T01:31:37.332Z,70.95
2019-01-16T01:34:23.566Z,70.74
2019-01-16T01:37:10.915Z,70.80
2019-01-16T01:39:54.026Z,70.81
2019-01-16T01:42:35.837Z,70.66
2019-01-16T01:45:23.448Z,70.77
2019-01-16T01:48:08.855Z,70.66
2019-01-16T01:51:00.571Z,70.73
2019-01-16T01:53:48.161Z,70.79
2019-01-16T01:56:42.392Z,70.62
2019-01-16T01:59:43.209Z,71.07
2019-01-16T02:02:24.238Z,70.99
2019-01-16T02:05:18.723Z,71.06
2019-01-16T02:08:11.855Z,71.27
2019-01-16T02:10:51.460Z,71.20
2019-01-16T02:13:32.255Z,71.05
2019-01-16T02:16:21.520Z,71.15
2019-01-16T02:19:00.499Z,71.23
2019-01-16T02:21:47.561Z,71.09
2019-01-16T02:24:36.115Z,71.36
2019-01-16T02:27:31.071Z,71.31
2019-01-16T02:30:16.473Z,71.58
2019-01-16T02:33:03.502Z,71.71
2019-01-16T02:35:47.395Z,71.98
2019-01-16T02:38:35.059Z,71.96
2019-01-16T02:41:19.784Z,72.02
2019-01-16T02:44:02.372Z,72.15
2019-01-16T02:46:57.828Z,71.96
2019-01-16T02:49:44.995Z,71.50
2019-01-16T02:52:31.871Z,71.51
2019-01-16T02:55:18.471Z,71.12
2019-01-16T02:58:02.607Z,70.52
2019-01-16T03:00:43.025Z,70.20
2019-01-16T03:03:31.347Z,70.29
2019-01-16T03:06:11.300Z,70.25
2019-01-16T03:08:48.800Z,70.11
2019-01-16T03:11:36.191Z,69.66
2019-01-16T03:14:26.637Z,69.91
2019-01-16T03:17:14.055Z,69.49
2019-01-16T03:19:56.278Z,69.07
2019-01-16T03:22:50.434Z,69.33
2019-01-16T03:25:54.256Z,68.97
2019-01-16T03:28:42.095Z,68.64
2019-01-16T03:31:21.889Z,68.41
2019-01-16T03:34:00.817Z,68.55
2019-01-16T03:36:52.432Z,68.44
2019-01-16T03:39:37.403Z,68.23
2019-01-16T03:42:25.011Z,67.99
2019-01-16T03:45:13.212Z,67.86
2019-01-16T03:48:05.338Z,68.06
2019-01-16T03:51:04.706Z,68.14
2019-01-16T03:53:47.216Z,68.25
2019-01-16T03:56:44.926Z,68.13
2019-01-16T03:59:28.949Z,68.13
2019-01-16T04:02:16.875Z,68.04
2019-01-16T04:04:57.511Z,68.26
2019-01-16T04:07:38.187Z,68.21
2019-01-16T04:10:31.598Z,68.07
2019-01-16T04:13:32.725Z,68.33
2019-01-16T04:16:19.818Z,68.00
2019-01-16T04:19:00.125Z,68.16
2019-01-16T04:21:42.467Z,68.29
2019-01-16T04:24:21.923Z,68.32
2019-01-16T04:27:22.642Z,68.24
2019-01-16T04:30:20.571Z,68.34
2019-01-16T04:33:24.526Z,68.47
2019-01-16T04:36:15.420Z,68.29
2019-01-16T04:39:06.499Z,68.57
2019-01-16T04:41:56.593Z,68.15
2019-01-16T04:44:42.128Z,68.18
2019-01-16T04:47:30.978Z,68.34
2019-01-16T04:50:24.572Z,68.19
2019-01-16T04:53:13.177Z,68.23
2019-01-16T04:56:07.988Z,68.17
2019-01-16T04:58:58.628Z,68.37
2019-01-16T05:01:45.577Z,68.16
2019-01-16T05:04:37.235Z,68.35
2019-01-16T05:07:22.932Z,68.61
2019-01-16T05:10:07.504Z,68.55
2019-01-16T05:12:53.121Z,68.75
2019-01-16T05:15:40.707Z,68.68
2019-01-16T05:18:22.452Z,68.74
2019-01-16T05:21:25.973Z,68.33
2019-01-16T05:24:19.285Z,68.60
2019-01-16T05:26:57.803Z,68.34
2019-01-16T05:29:39.752Z,68.77
2019-01-16T05:32:28.225Z,68.69
2019-01-16T05:35:15.245Z,68.37
2019-01-16T05:38:05.552Z,68.08
2019-01-16T05:40:57.593Z,68.28
2019-01-16T05:43:58.072Z,68.08
2019-01-16T05:46:41.329Z,67.80
2019-01-16T05:49:33.031Z,67.70
2019-01-16T05:52:13.865Z,67.77
2019-01-16T05:55:03.930Z,67.54
2019-01-16T05:57:55.278Z,67.32
2019-01-16T06:00:35.286Z,67.30
2019-01-16T06:03:29.846Z,67.26
2019-01-16T06:06:21.950Z,67.07
2019-01-16T06:09:02.207Z,66.86
2019-01-16T06:11:50.663Z,67.15
2019-01-16T06:14:32.348Z,67.19
2019-01-16T06:17:12.753Z,67.41
2019-01-16T06:19:54.166Z,67.15
2019-01-16T06:22:31.698Z,67.57
2019-01-16T06:25:10.261Z,67.65
2019-01-16T06:27:57.440Z,67.73
2019-01-16T06:30:44.876Z,67.79
2019-01-16T06:33:32.333Z,67.82
2019-01-16T06:36:23.758Z,68.00
2019-01-16T06:39:10.979Z,68.05
2019-01-16T06:42:02.738Z,68.06
2019-01-16T06:44:48.344Z,68.17
2019-01-16T06:47:34.060Z,67.94
2019-01-16T06:50:37.337Z,67.90
2019-01-16T06:53:18.932Z,67.92
2019-01-16T06:56:16.807Z,67.75
2019-01-16T06:59:05.465Z,67.66
2019-01-16T07:02:00.747Z,67.67
2019-01-16T07:05:01.907Z,67.66
2019-01-16T07:07:50.447Z,67.58
2019-01-16T07:10:33.004Z,67.58
2019-01-16T07:13:14.648Z,67.59
2019-01-16T07:16:02.346Z,67.82
2019-01-16T07:18:49.615Z,67.62
2019-01-16T07:21:37.016Z,67.44
2019-01-16T07:24:20.152Z,67.46
2019-01-16T07:27:07.328Z,67.46
2019-01-16T07:29:47.499Z,67.36
2019-01-16T07:32:54.589Z,67.21
2019-01-16T07:36:01.347Z,66.94
2019-01-16T07:38:52.716Z,66.82
2019-01-16T07:41:40.081Z,66.76
2019-01-16T07:44:40.697Z,66.98
2019-01-16T07:47:22.699Z,66.93
2019-01-16T07:50:17.383Z,67.18
2019-01-16T07:53:08.505Z,66.96
2019-01-16T07:55:56.099Z,66.87
2019-01-16T07:58:35.889Z,66.85
2019-01-16T08:01:16.285Z,66.69
2019-01-16T08:04:03.634Z,66.37
2019-01-16T08:06:58.492Z,66.41
2019-01-16T08:09:49.195Z,66.44
2019-01-16T08:12:36.312Z,65.96
2019-01-16T08:15:29.855Z,66.15
2019-01-16T08:18:09.575Z,66.26
2019-01-16T08:20:56.914Z,66.37
2019-01-16T08:23:42.298Z,65.88
2019-01-16T08:26:25.496Z,65.28
2019-01-16T08:29:03.897Z,65.66
2019-01-16T08:31:45.997Z,65.57
2019-01-16T08:34:38.789Z,65.87
2019-01-16T08:37:17.154Z,65.33
2019-01-16T08:40:08.236Z,65.26
2019-01-16T08:42:55.257Z,65.12
2019-01-16T08:45:44.102Z,64.96
2019-01-16T08:48:29.342Z,65.36
2019-01-16T08:51:23.746Z,64.97
2019-01-16T08:54:30.314Z,65.23
2019-01-16T08:57:14.549Z,64.93
2019-01-16T09:00:01.624Z,64.83
2019-01-16T09:02:49.147Z,64.74
2019-01-16T09:05:36.248Z,64.83
2019-01-16T09:08:23.041Z,64.75
2019-01-16T09:11:10.087Z,64.47
2019-01-16T09:14:06.321Z,64.72
2019-01-16T09:16:46.536Z,64.82
2019-01-16T09:19:33.885Z,64.95
2019-01-16T09:22:22.826Z,65.11
2019-01-16T09:25:10.135Z,65.01
2019-01-16T09:27:50.924Z,65.05
2019-01-16T09:30:54.834Z,65.14
2019-01-16T09:33:44.000Z,65.14
2019-01-16T09:36:30.935Z,65.16
2019-01-16T09:39:22.640Z,65.06
2019-01-16T09:42:02.171Z,65.22
2019-01-16T09:44:53.847Z,65.33
2019-01-16T09:47:33.180Z,65.22
2019-01-16T09:50:20.709Z,65.04
2019-01-16T09:53:15.045Z,65.38
2019-01-16T09:55:57.459Z,65.18
2019-01-16T09:58:50.663Z,64.89
2019-01-16T10:01:37.939Z,64.82
2019-01-16T10:04:25.536Z,64.77
2019-01-16T10:07:10.820Z,65.17
2019-01-16T10:10:03.575Z,65.19
2019-01-16T10:12:50.821Z,65.21
2019-01-16T10:15:34.996Z,65.21
2019-01-16T10:18:26.549Z,65.38
2019-01-16T10:21:15.444Z,65.64
2019-01-16T10:24:03.035Z,65.98
2019-01-16T10:26:46.020Z,65.71
2019-01-16T10:29:24.465Z,65.53
2019-01-16T10:32:16.099Z,65.32
2019-01-16T10:35:00.730Z,65.57
2019-01-16T10:37:58.387Z,64.89
2019-01-16T10:40:38.212Z,64.89
2019-01-16T10:43:25.985Z,65.07
2019-01-16T10:46:23.471Z,64.82
2019-01-16T10:49:10.837Z,64.86
2019-01-16T10:52:17.647Z,65.16
2019-01-16T10:55:13.323Z,64.96
2019-01-16T10:57:52.999Z,64.51
2019-01-16T11:00:40.512Z,64.71
2019-01-16T11:03:27.616Z,64.58
2019-01-16T11:06:31.603Z,64.41
2019-01-16T11:09:13.074Z,64.52
2019-01-16T11:12:01.648Z,64.53
2019-01-16T11:14:48.677Z,64.25
2019-01-16T11:17:29.578Z,64.26
2019-01-16T11:20:19.441Z,64.13
2019-01-16T11:23:10.397Z,64.26
2019-01-16T11:25:49.121Z,64.11
2019-01-16T11:28:43.692Z,64.22
2019-01-16T11:31:38.244Z,64.38
2019-01-16T11:34:15.321Z,64.47
2019-01-16T11:37:14.912Z,64.53
2019-01-16T11:40:09.311Z,64.55
2019-01-16T11:42:56.588Z,64.33
2019-01-16T11:45:43.640Z,65.08
2019-01-16T11:48:42.639Z,65.42
2019-01-16T11:51:33.630Z,66.01
2019-01-16T11:54:35.103Z,66.34
2019-01-16T11:57:37.053Z,66.25
2019-01-16T12:00:15.946Z,66.07
2019-01-16T12:03:03.401Z,66.10
2019-01-16T12:05:51.759Z,65.72
2019-01-16T12:08:46.402Z,66.01
2019-01-16T12:11:25.590Z,65.67
2019-01-16T12:14:23.393Z,65.76
2019-01-16T12:17:12.413Z,66.14
2019-01-16T12:19:59.164Z,66.04
2019-01-16T12:22:42.598Z,66.19
2019-01-16T12:25:36.178Z,66.10
2019-01-16T12:28:36.460Z,65.80
2019-01-16T12:31:15.320Z,65.83
2019-01-16T12:33:55.603Z,66.09
2019-01-16T12:36:46.473Z,65.75
2019-01-16T12:39:38.353Z,65.64
2019-01-16T12:42:25.770Z,65.42
2019-01-16T12:45:17.384Z,65.07
2019-01-16T12:48:04.570Z,65.11
2019-01-16T12:50:45.382Z,64.88
2019-01-16T12:53:22.802Z,64.90
2019-01-16T12:56:26.674Z,64.84
2019-01-16T12:59:27.108Z,64.74
2019-01-16T13:02:15.526Z,64.79
2019-01-16T13:04:57.782Z,64.45
2019-01-16T13:07:46.586Z,64.75
2019-01-16T13:10:34.146Z,64.50
2019-01-16T13:13:35.156Z,64.67
2019-01-16T13:16:14.969Z,64.66
2019-01-16T13:19:09.292Z,64.50
2019-01-16T13:21:57.275Z,64.31
2019-01-16T13:24:42.530Z,64.58
2019-01-16T13:27:36.475Z,64.87
2019-01-16T13:30:32.486Z,64.74
2019-01-16T13:33:30.191Z,64.95
2019-01-16T13:36:24.046Z,64.79
2019-01-16T13:39:11.044Z,64.80
2019-01-16T13:41:52.277Z,64.63
2019-01-16T13:44:46.452Z,64.88
2019-01-16T13:47:32.461Z,64.97
2019-01-16T13:50:19.783Z,64.71
2019-01-16T13:53:03.140Z,64.76
2019-01-16T13:56:10.211Z,64.62
2019-01-16T13:58:53.227Z,64.27
2019-01-16T14:01:31.780Z,64.24
2019-01-16T14:04:10.430Z,64.38
2019-01-16T14:06:48.252Z,64.25
2019-01-16T14:09:28.219Z,64.04
2019-01-16T14:12:16.910Z,64.13
2019-01-16T14:15:03.858Z,64.06
2019-01-16T14:18:07.863Z,63.83
2019-01-16T14:20:55.143Z,63.93
2019-01-16T14:23:34.733Z,63.69
2019-01-16T14:26:32.514Z,63.71
2019-01-16T14:29:24.786Z,63.48
2019-01-16T14:32:18.861Z,63.49
2019-01-16T14:35:06.538Z,63.44
2019-01-16T14:37:59.379Z,63.38
2019-01-16T14:40:44.325Z,63.21
2019-01-16T14:43:39.281Z,62.74
2019-01-16T14:46:46.205Z,63.01
2019-01-16T14:49:26.755Z,63.19
2019-01-16T14:52:13.727Z,62.85
2019-01-16T14:55:06.000Z,62.93
2019-01-16T14:57:51.082Z,62.93
2019-01-16T15:00:50.000Z,63.04
2019-01-16T15:03:56.977Z,63.28
2019-01-16T15:06:35.361Z,62.97
2019-01-16T15:09:27.144Z,63.29
2019-01-16T15:12:03.311Z,63.10
2019-01-16T15:14:54.666Z,62.74
2019-01-16T15:18:01.428Z,62.95
2019-01-16T15:20:47.758Z,62.99
2019-01-16T15:23:25.221Z,62.83
2019-01-16T15:26:04.218Z,62.98
2019-01-16T15:28:45.235Z,62.97
2019-01-16T15:31:33.908Z,63.18
2019-01-16T15:34:18.431Z,63.31
2019-01-16T15:37:06.171Z,63.22
2019-01-16T15:39:53.500Z,63.13
2019-01-16T15:42:46.115Z,63.26
2019-01-16T15:45:38.528Z,62.99
2019-01-16T15:48:32.475Z,63.10
2019-01-16T15:51:19.763Z,62.97
2019-01-16T15:53:59.060Z,62.79
2019-01-16T15:56:43.367Z,62.90
2019-01-16T15:59:25.162Z,62.89
2019-01-16T16:02:11.780Z,62.98
2019-01-16T16:05:00.027Z,62.98
2019-01-16T16:07:48.955Z,62.52
2019-01-16T16:10:29.113Z,62.28
2019-01-16T16:13:16.207Z,62.12
2019-01-16T16:15:55.976Z,62.21
2019-01-16T16:18:47.385Z,61.96
2019-01-16T16:21:35.615Z,62.06
2019-01-16T16:24:13.704Z,61.65
2019-01-16T16:26:57.021Z,61.75
2019-01-16T16:29:57.775Z,61.67
2019-01-16T16:32:43.139Z,61.71
2019-01-16T16:35:22.598Z,61.53
2019-01-16T16:38:23.717Z,61.42
2019-01-16T16:41:12.612Z,61.34
2019-01-16T16:43:54.544Z,61.12
2019-01-16T16:46:43.556Z,61.00
2019-01-16T16:49:22.715Z,60.62
2019-01-16T16:52:27.046Z,60.67
2019-01-16T16:55:10.562Z,60.52
2019-01-16T16:57:53.913Z,60.63
2019-01-16T17:00:58.318Z,60.53
2019-01-16T17:03:49.795Z,60.24
2019-01-16T17:06:32.900Z,60.09
2019-01-16T17:09:18.727Z,60.22
2019-01-16T17:12:19.788Z,60.54
2019-01-16T17:15:20.448Z,60.66
2019-01-16T17:18:10.705Z,60.50
2019-01-16T17:20:58.113Z,60.93
2019-01-16T17:23:52.509Z,60.69
2019-01-16T17:26:35.088Z,60.12
2019-01-16T17:29:21.298Z,60.52
2019-01-16T17:32:08.835Z,60.52
2019-01-16T17:34:52.641Z,60.17
2019-01-16T17:37:40.362Z,60.28
2019-01-16T17:40:20.732Z,59.83
2019-01-16T17:43:09.588Z,59.84
2019-01-16T17:45:56.937Z,59.92
2019-01-16T17:48:44.734Z,59.90
2019-01-16T17:51:30.033Z,60.18
2019-01-16T17:54:18.171Z,60.50
2019-01-16T17:57:06.942Z,60.46
2019-01-16T17:59:45.462Z,60.18
2019-01-16T18:02:29.671Z,60.41
2019-01-16T18:05:20.967Z,60.63
2019-01-16T18:08:18.861Z,60.22
2019-01-16T18:11:06.099Z,60.43
2019-01-16T18:13:53.481Z,60.28
2019-01-16T18:16:40.615Z,60.35
2019-01-16T18:19:22.481Z,60.26
2019-01-16T18:22:11.186Z,60.37
2019-01-16T18:24:58.537Z,60.42
2019-01-16T18:27:45.809Z,60.46
2019-01-16T18:30:44.179Z,60.55
2019-01-16T18:33:41.620Z,60.69
2019-01-16T18:36:28.721Z,60.80
2019-01-16T18:39:22.186Z,60.38
2019-01-16T18:42:11.857Z,60.80
2019-01-16T18:44:54.242Z,60.67
2019-01-16T18:47:55.046Z,60.76
2019-01-16T18:50:43.875Z,60.87
2019-01-16T18:53:34.060Z,60.83
2019-01-16T18:56:15.903Z,60.86
2019-01-16T18:59:04.474Z,60.97
2019-01-16T19:01:45.064Z,61.05
2019-01-16T19:04:32.630Z,61.21
2019-01-16T19:07:24.235Z,61.11
2019-01-16T19:10:25.449Z,61.27
2019-01-16T19:13:13.936Z,61.34
2019-01-16T19:16:06.116Z,61.19
2019-01-16T19:18:53.443Z,61.16
2019-01-16T19:21:40.761Z,61.45
2019-01-16T19:24:24.190Z,61.46
2019-01-16T19:27:12.976Z,61.51
2019-01-16T19:30:00.486Z,61.36
2019-01-16T19:32:54.643Z,61.54
2019-01-16T19:35:43.244Z,61.31
2019-01-16T19:38:24.280Z,61.38
2019-01-16T19:41:11.682Z,61.33
2019-01-16T19:43:58.836Z,61.06
2019-01-16T19:46:44.286Z,61.15
2019-01-16T19:49:29.086Z,61.53
2019-01-16T19:52:08.438Z,61.34
2019-01-16T19:54:55.492Z,61.46
2019-01-16T19:57:34.967Z,61.56
2019-01-16T20:00:16.212Z,61.44
2019-01-16T20:03:03.794Z,61.63
2019-01-16T20:05:58.214Z,61.70
2019-01-16T20:08:45.470Z,61.67
2019-01-16T20:11:37.239Z,61.65
2019-01-16T20:14:35.287Z,61.64
2019-01-16T20:17:22.614Z,61.90
2019-01-16T20:20:26.462Z,61.61
2019-01-16T20:23:21.221Z,61.81
2019-01-16T20:26:08.837Z,61.78
2019-01-16T20:28:56.467Z,61.66
2019-01-16T20:31:46.897Z,61.58
2019-01-16T20:34:30.238Z,61.75
2019-01-16T20:37:20.474Z,61.52
2019-01-16T20:40:02.034Z,61.59
2019-01-16T20:42:50.508Z,61.77
2019-01-16T20:45:38.064Z,61.76
2019-01-16T20:48:23.804Z,61.89
2019-01-16T20:51:18.213Z,61.67
2019-01-16T20:54:08.188Z,61.94
2019-01-16T20:56:56.771Z,61.76
2019-01-16T20:59:48.501Z,61.73
2019-01-16T21:02:49.063Z,62.15
2019-01-16T21:05:27.978Z,61.96
2019-01-16T21:08:15.926Z,62.19
2019-01-16T21:11:03.165Z,62.17
2019-01-16T21:13:41.626Z,62.17
2019-01-16T21:16:29.524Z,62.12
2019-01-16T21:19:10.277Z,62.21
2019-01-16T21:21:58.036Z,62.34
2019-01-16T21:24:56.487Z,62.40
2019-01-16T21:27:47.884Z,62.38
2019-01-16T21:30:35.306Z,62.29
2019-01-16T21:33:22.694Z,62.18
2019-01-16T21:36:26.560Z,62.24
2019-01-16T21:39:15.172Z,62.23
2019-01-16T21:41:56.850Z,62.55
2019-01-16T21:44:54.308Z,62.64
2019-01-16T21:47:41.764Z,62.67
2019-01-16T21:50:36.669Z,62.55
2019-01-16T21:53:20.514Z,62.46
2019-01-16T21:56:18.150Z,62.48
2019-01-16T21:59:02.495Z,62.58
2019-01-16T22:01:50.224Z,62.26
2019-01-16T22:04:34.803Z,62.49
2019-01-16T22:07:26.294Z,62.29
2019-01-16T22:10:08.637Z,62.18
2019-01-16T22:13:09.152Z,62.34
2019-01-16T22:15:57.015Z,62.12
2019-01-16T22:18:50.497Z,61.92
2019-01-16T22:21:46.214Z,61.92
2019-01-16T22:24:37.849Z,61.89
2019-01-16T22:27:29.474Z,62.00
2019-01-16T22:30:26.926Z,61.75
2019-01-16T22:33:21.420Z,62.08
2019-01-16T22:36:08.594Z,61.95
2019-01-16T22:39:00.151Z,61.75
2019-01-16T22:41:36.620Z,61.93
2019-01-16T22:44:24.536Z,62.13
2019-01-16T22:47:11.795Z,62.08
2019-01-16T22:49:59.281Z,62.04
2019-01-16T22:52:48.624Z,62.20
2019-01-16T22:55:26.851Z,61.86
2019-01-16T22:58:06.973Z,61.92
2019-01-16T23:00:57.326Z,62.25
2019-01-16T23:03:41.294Z,62.30
2019-01-16T23:06:28.114Z,62.43
2019-01-16T23:09:24.833Z,62.14
2019-01-16T23:12:12.149Z,62.28
2019-01-16T23:14:49.101Z,62.25
2019-01-16T23:17:36.570Z,61.71
2019-01-16T23:20:24.565Z,62.04
2019-01-16T23:23:28.363Z,62.28
2019-01-16T23:26:29.101Z,62.36
2019-01-16T23:29:06.502Z,62.58
2019-01-16T23:32:01.817Z,62.76
2019-01-16T23:34:48.871Z,62.79
2019-01-16T23:37:36.144Z,62.65
2019-01-16T23:40:12.969Z,62.96
2019-01-16T23:42:52.462Z,62.59
2019-01-16T23:45:31.851Z,62.38
2019-01-16T23:48:20.387Z,62.34
2019-01-16T23:51:18.758Z,61.97
2019-01-16T23:54:06.761Z,62.02
2019-01-16T23:57:10.531Z,61.99
2019-01-16T23:59:57.532Z,61.91
